Huvudsida
METAR-TAF:

METAR-TAF

Flygplatser :

Sørkjosens flygplats

Sørkjosen, Norge

latitud: 69-47N, longitud: 020-58E, höjd: 0 m

Aktuellt väderrapport

Denna rapport gjordes för 6 timmar och 5 minuter sedan, klockan 08:50 UTC
Vind 26 kt från väst/nordväst
Temperatur 10°C
Fuktighet 82%
Tryck 999 hPa
Sikt 10 km eller mer
Få moln på en höjd av 1400 ft
Brutna moln på en höjd av 3000 ft
lätta regnskurar

METAR: ENSR 200850Z 31015KT 9999 -SHRA FEW014 BKN030 10/07 Q0999 WIND 1119FT 30026KT

Tid: 16:55 (14:55 UTC)


TAF: saknas

Aktuella väderrapporter och prognoser från 4000 flygplatser (METAR- och TAF-rapporter).

De tillgängliga stationerna syns som gula och röda prickar på kartan.

För musen över prickarna för att se namnen på stationerna.

Klicka sedan för att få väderrapporter och prognoser.

För att ändra kartan: Klicka på de gröna knapparna med ett svart kors på för att zooma in; den gröna knappen med ett streck på för att zooma ut; eller på de gröna pilarna för angränsande kartor.


METAR-TAF: